createdAt,value
2019-04-26T00:00:30.417Z,0.00
2019-04-26T00:01:30.436Z,0.00
2019-04-26T00:02:30.460Z,0.00
2019-04-26T00:03:30.489Z,0.00
2019-04-26T00:04:30.495Z,0.00
2019-04-26T00:05:34.791Z,0.00
2019-04-26T00:06:30.542Z,0.00
2019-04-26T00:07:30.549Z,0.00
2019-04-26T00:08:30.571Z,0.00
2019-04-26T00:09:30.597Z,0.00
2019-04-26T00:10:30.611Z,0.00
2019-04-26T00:11:30.628Z,0.00
2019-04-26T00:12:30.649Z,0.00
2019-04-26T00:13:30.673Z,0.00
2019-04-26T00:14:30.692Z,0.00
2019-04-26T00:15:30.708Z,0.00
2019-04-26T00:16:30.732Z,0.00
2019-04-26T00:17:30.752Z,0.00
2019-04-26T00:18:30.764Z,0.00
2019-04-26T00:19:30.781Z,0.00
2019-04-26T00:20:30.806Z,0.00
2019-04-26T00:21:30.820Z,0.00
2019-04-26T00:22:30.847Z,0.00
2019-04-26T00:23:30.868Z,0.00
2019-04-26T00:24:30.878Z,0.00
2019-04-26T00:25:30.905Z,0.00
2019-04-26T00:26:30.915Z,0.00
2019-04-26T00:27:30.936Z,0.00
2019-04-26T00:28:30.962Z,0.00
2019-04-26T00:29:30.982Z,0.00
2019-04-26T00:30:30.996Z,0.00
2019-04-26T00:31:31.018Z,0.00
2019-04-26T00:32:31.031Z,0.00
2019-04-26T00:33:31.058Z,0.00
2019-04-26T00:34:31.073Z,0.00
2019-04-26T00:35:31.092Z,0.00
2019-04-26T00:36:31.110Z,0.00
2019-04-26T00:37:31.128Z,0.00
2019-04-26T00:38:31.146Z,0.00
2019-04-26T00:39:31.166Z,0.00
2019-04-26T00:40:31.189Z,0.00
2019-04-26T00:41:31.205Z,0.00
2019-04-26T00:42:31.226Z,0.00
2019-04-26T00:43:31.247Z,0.00
2019-04-26T00:44:31.272Z,0.00
2019-04-26T00:45:31.290Z,0.00
2019-04-26T00:46:31.301Z,0.00
2019-04-26T00:47:31.322Z,0.00
2019-04-26T00:48:31.339Z,0.00
2019-04-26T00:49:43.031Z,0.00
2019-04-26T00:50:31.381Z,0.00
2019-04-26T00:51:31.400Z,0.00
2019-04-26T00:52:31.481Z,0.00
2019-04-26T00:53:31.437Z,0.00
2019-04-26T00:54:31.459Z,0.00
2019-04-26T00:55:31.480Z,0.00
2019-04-26T00:56:31.497Z,0.00
2019-04-26T00:57:31.512Z,0.00
2019-04-26T00:58:33.522Z,0.00
2019-04-26T00:59:31.553Z,0.00
2019-04-26T01:00:31.576Z,0.00
2019-04-26T01:01:31.591Z,0.00
2019-04-26T01:02:31.611Z,0.00
2019-04-26T01:03:31.630Z,0.00
2019-04-26T01:04:31.651Z,0.00
2019-04-26T01:05:31.666Z,0.00
2019-04-26T01:06:31.684Z,0.00
2019-04-26T01:07:31.711Z,0.00
2019-04-26T01:08:31.729Z,0.00
2019-04-26T01:09:31.747Z,0.00
2019-04-26T01:10:31.763Z,0.00
2019-04-26T01:11:31.785Z,0.00
2019-04-26T01:12:31.800Z,0.00
2019-04-26T01:13:31.826Z,0.00
2019-04-26T01:14:31.838Z,0.00
2019-04-26T01:15:31.857Z,0.00
2019-04-26T01:16:31.879Z,0.00
2019-04-26T01:17:31.902Z,0.00
2019-04-26T01:18:31.923Z,0.00
2019-04-26T01:19:31.942Z,0.00
2019-04-26T01:20:31.956Z,0.00
2019-04-26T01:21:31.991Z,0.00
2019-04-26T01:22:31.996Z,0.00
2019-04-26T01:23:32.010Z,0.00
2019-04-26T01:24:32.036Z,0.00
2019-04-26T01:25:32.056Z,0.00
2019-04-26T01:26:32.077Z,0.00
2019-04-26T01:27:32.087Z,0.00
2019-04-26T01:28:32.113Z,0.00
2019-04-26T01:29:32.132Z,0.00
2019-04-26T01:30:32.143Z,0.00
2019-04-26T01:31:32.166Z,0.00
2019-04-26T01:32:32.182Z,0.00
2019-04-26T01:33:32.206Z,0.00
2019-04-26T01:34:32.223Z,0.00
2019-04-26T01:35:32.239Z,0.00
2019-04-26T01:36:32.258Z,0.00
2019-04-26T01:37:32.285Z,0.00
2019-04-26T01:38:32.303Z,0.00
2019-04-26T01:39:32.317Z,0.00
2019-04-26T01:40:32.504Z,0.00
2019-04-26T01:41:32.623Z,0.00
2019-04-26T01:42:32.818Z,0.00
2019-04-26T01:43:32.813Z,0.00
2019-04-26T01:44:32.415Z,0.00
2019-04-26T01:45:32.433Z,0.00
2019-04-26T01:46:32.449Z,0.00
2019-04-26T01:47:32.739Z,0.00
2019-04-26T01:48:32.489Z,0.00
2019-04-26T01:49:32.566Z,0.00
2019-04-26T01:50:32.539Z,0.00
2019-04-26T01:51:32.928Z,0.00
2019-04-26T01:52:32.569Z,0.00
2019-04-26T01:53:33.023Z,0.00
2019-04-26T01:54:32.602Z,0.00
2019-04-26T01:55:32.619Z,0.00
2019-04-26T01:56:32.642Z,0.00
2019-04-26T01:57:32.659Z,0.00
2019-04-26T01:58:32.680Z,0.00
2019-04-26T01:59:32.699Z,0.00
2019-04-26T02:00:32.719Z,0.00
2019-04-26T02:01:32.735Z,0.00
2019-04-26T02:02:32.747Z,0.00
2019-04-26T02:03:32.769Z,0.00
2019-04-26T02:04:32.788Z,0.00
2019-04-26T02:05:32.811Z,0.00
2019-04-26T02:06:35.157Z,0.00
2019-04-26T02:07:32.845Z,0.00
2019-04-26T02:08:32.868Z,0.00
2019-04-26T02:09:32.888Z,0.00
2019-04-26T02:10:32.904Z,0.00
2019-04-26T02:11:33.007Z,0.00
2019-04-26T02:12:33.129Z,0.00
2019-04-26T02:13:33.122Z,0.00
2019-04-26T02:14:33.301Z,0.00
2019-04-26T02:15:33.484Z,0.00
2019-04-26T02:16:33.338Z,0.00
2019-04-26T02:17:33.648Z,0.00
2019-04-26T02:18:33.565Z,0.00
2019-04-26T02:19:33.705Z,0.00
2019-04-26T02:20:33.932Z,0.00
2019-04-26T02:21:34.202Z,0.00
2019-04-26T02:22:34.104Z,0.00
2019-04-26T02:23:34.260Z,0.00
2019-04-26T02:24:33.163Z,0.00
2019-04-26T02:25:34.128Z,0.00
2019-04-26T02:26:33.208Z,0.00
2019-04-26T02:27:34.549Z,0.00
2019-04-26T02:28:33.240Z,0.00
2019-04-26T02:29:33.257Z,0.00
2019-04-26T02:30:34.799Z,0.00
2019-04-26T02:31:35.447Z,0.00
2019-04-26T02:32:35.262Z,0.00
2019-04-26T02:33:34.876Z,0.00
2019-04-26T02:34:35.250Z,0.00
2019-04-26T02:35:34.091Z,0.00
2019-04-26T02:36:55.339Z,0.00
2019-04-26T02:37:34.594Z,0.00
2019-04-26T02:38:34.712Z,0.00
2019-04-26T02:39:35.282Z,0.00
2019-04-26T02:40:34.750Z,0.00
2019-04-26T02:41:33.942Z,0.00
2019-04-26T02:42:34.997Z,0.00
2019-04-26T02:43:35.239Z,0.00
2019-04-26T02:44:34.969Z,0.00
2019-04-26T02:45:34.717Z,0.00
2019-04-26T02:46:34.893Z,0.00
2019-04-26T02:47:34.996Z,0.00
2019-04-26T02:48:34.806Z,0.00
2019-04-26T02:49:35.082Z,0.00
2019-04-26T02:50:35.364Z,0.00
2019-04-26T02:51:34.743Z,0.00
2019-04-26T02:52:35.443Z,0.00
2019-04-26T02:53:34.917Z,0.00
2019-04-26T02:54:34.781Z,0.00
2019-04-26T02:55:38.648Z,0.00
2019-04-26T02:56:35.597Z,0.00
2019-04-26T02:57:34.344Z,0.00
2019-04-26T02:58:35.997Z,0.00
2019-04-26T02:59:36.116Z,0.00
2019-04-26T03:00:35.494Z,0.00
2019-04-26T03:01:35.949Z,0.00
2019-04-26T03:02:36.161Z,0.00
2019-04-26T03:03:35.632Z,0.00
2019-04-26T03:04:34.660Z,0.00
2019-04-26T03:05:35.547Z,0.00
2019-04-26T03:06:34.963Z,0.00
2019-04-26T03:07:35.864Z,0.00
2019-04-26T03:08:35.458Z,0.00
2019-04-26T03:09:35.070Z,0.00
2019-04-26T03:10:36.087Z,0.00
2019-04-26T03:11:35.135Z,0.00
2019-04-26T03:12:35.672Z,0.00
2019-04-26T03:13:35.097Z,0.00
2019-04-26T03:14:34.979Z,0.00
2019-04-26T03:15:35.382Z,0.00
2019-04-26T03:16:35.334Z,0.00
2019-04-26T03:17:35.802Z,0.00
2019-04-26T03:18:35.553Z,0.00
2019-04-26T03:19:36.246Z,0.00
2019-04-26T03:20:34.955Z,0.00
2019-04-26T03:21:36.031Z,0.00
2019-04-26T03:22:35.636Z,0.00
2019-04-26T03:23:53.254Z,0.00
2019-04-26T03:24:35.155Z,0.00
2019-04-26T03:25:35.154Z,0.00
2019-04-26T03:26:35.599Z,0.00
2019-04-26T03:27:35.721Z,0.00
2019-04-26T03:28:35.494Z,0.00
2019-04-26T03:29:35.424Z,0.00
2019-04-26T03:30:39.066Z,0.00
2019-04-26T03:31:41.056Z,0.00
2019-04-26T03:32:40.387Z,0.00
2019-04-26T03:33:39.825Z,0.00
2019-04-26T03:34:40.515Z,0.00
2019-04-26T03:35:41.443Z,0.00
2019-04-26T03:36:37.408Z,0.00
2019-04-26T03:37:36.090Z,0.00
2019-04-26T03:38:36.247Z,0.00
2019-04-26T03:39:36.595Z,0.00
2019-04-26T03:40:36.322Z,0.00
2019-04-26T03:41:36.748Z,0.00
2019-04-26T03:42:36.536Z,0.00
2019-04-26T03:43:36.330Z,0.00
2019-04-26T03:44:36.667Z,0.00
2019-04-26T03:45:36.474Z,0.00
2019-04-26T03:46:35.641Z,0.00
2019-04-26T03:47:37.912Z,0.00
2019-04-26T03:48:35.908Z,0.00
2019-04-26T03:49:36.156Z,0.00
2019-04-26T03:50:35.872Z,0.00
2019-04-26T03:51:35.695Z,0.00
2019-04-26T03:52:37.031Z,0.00
2019-04-26T03:53:36.194Z,0.00
2019-04-26T03:54:36.901Z,0.00
2019-04-26T03:55:36.353Z,0.00
2019-04-26T03:56:36.655Z,0.00
2019-04-26T03:57:36.221Z,0.00
2019-04-26T03:58:36.617Z,0.00
2019-04-26T03:59:36.420Z,0.00
2019-04-26T04:00:37.181Z,0.00
2019-04-26T04:01:35.351Z,0.00
2019-04-26T04:02:36.680Z,0.00
2019-04-26T04:03:37.497Z,0.00
2019-04-26T04:04:37.086Z,0.00
2019-04-26T04:05:37.284Z,0.00
2019-04-26T04:06:52.475Z,0.00
2019-04-26T04:07:39.050Z,0.00
2019-04-26T04:08:36.319Z,0.00
2019-04-26T04:09:35.884Z,0.00
2019-04-26T04:10:37.473Z,0.00
2019-04-26T04:11:36.425Z,0.00
2019-04-26T04:12:36.193Z,0.00
2019-04-26T04:13:36.767Z,0.00
2019-04-26T04:14:37.671Z,0.00
2019-04-26T04:15:37.928Z,0.00
2019-04-26T04:16:37.025Z,0.00
2019-04-26T04:17:35.288Z,0.00
2019-04-26T04:18:35.307Z,0.00
2019-04-26T04:19:35.328Z,0.00
2019-04-26T04:20:35.343Z,0.00
2019-04-26T04:21:35.369Z,0.00
2019-04-26T04:22:35.381Z,0.00
2019-04-26T04:23:35.399Z,0.00
2019-04-26T04:24:35.421Z,0.00
2019-04-26T04:25:35.439Z,0.00
2019-04-26T04:26:35.455Z,0.00
2019-04-26T04:27:35.491Z,0.00
2019-04-26T04:29:42.813Z,0.00
2019-04-26T04:30:35.535Z,0.00
2019-04-26T04:31:35.546Z,0.00
2019-04-26T04:32:35.572Z,0.00
2019-04-26T04:33:35.590Z,0.00
2019-04-26T04:34:35.612Z,0.00
2019-04-26T04:35:35.622Z,0.00
2019-04-26T04:36:35.647Z,0.00
2019-04-26T04:37:52.542Z,0.00
2019-04-26T04:38:35.678Z,0.00
2019-04-26T04:39:35.700Z,0.00
2019-04-26T04:40:35.728Z,0.00
2019-04-26T04:41:35.740Z,0.00
2019-04-26T04:42:35.828Z,0.00
2019-04-26T04:43:35.774Z,0.00
2019-04-26T04:44:35.797Z,5.63
2019-04-26T04:45:35.846Z,5.63
2019-04-26T04:46:35.833Z,5.63
2019-04-26T04:47:35.850Z,5.63
2019-04-26T04:48:35.878Z,5.63
2019-04-26T04:49:35.889Z,5.63
2019-04-26T04:50:35.908Z,11.25
2019-04-26T04:51:35.923Z,11.25
2019-04-26T04:52:35.951Z,11.25
2019-04-26T04:53:35.958Z,16.88
2019-04-26T04:54:35.975Z,16.88
2019-04-26T04:55:35.994Z,22.50
2019-04-26T04:56:36.015Z,22.50
2019-04-26T04:57:36.038Z,28.13
2019-04-26T04:58:36.063Z,28.13
2019-04-26T04:59:36.069Z,28.13
2019-04-26T05:00:36.092Z,28.13
2019-04-26T05:01:36.109Z,28.13
2019-04-26T05:02:36.147Z,22.50
2019-04-26T05:03:36.193Z,22.50
2019-04-26T05:04:36.169Z,22.50
2019-04-26T05:05:36.180Z,22.50
2019-04-26T05:06:36.198Z,22.50
2019-04-26T05:07:36.220Z,22.50
2019-04-26T05:08:36.251Z,22.50
2019-04-26T05:09:36.259Z,22.50
2019-04-26T05:10:36.279Z,22.50
2019-04-26T05:11:36.296Z,16.88
2019-04-26T05:12:36.319Z,16.88
2019-04-26T05:13:36.330Z,16.88
2019-04-26T05:14:36.348Z,16.88
2019-04-26T05:15:36.374Z,11.25
2019-04-26T05:16:36.386Z,11.25
2019-04-26T05:17:36.413Z,16.88
2019-04-26T05:18:36.424Z,16.88
2019-04-26T05:19:36.446Z,16.88
2019-04-26T05:20:36.460Z,16.88
2019-04-26T05:21:36.482Z,22.50
2019-04-26T05:22:36.504Z,22.50
2019-04-26T05:23:36.521Z,22.50
2019-04-26T05:24:36.536Z,28.13
2019-04-26T05:25:36.554Z,28.13
2019-04-26T05:26:36.578Z,28.13
2019-04-26T05:27:36.594Z,22.50
2019-04-26T05:28:36.613Z,22.50
2019-04-26T05:29:36.635Z,22.50
2019-04-26T05:30:36.649Z,22.50
2019-04-26T05:31:36.671Z,22.50
2019-04-26T05:32:36.693Z,22.50
2019-04-26T05:33:36.704Z,22.50
2019-04-26T05:34:36.724Z,22.50
2019-04-26T05:35:36.744Z,22.50
2019-04-26T05:36:36.762Z,22.50
2019-04-26T05:37:37.238Z,22.50
2019-04-26T05:38:36.803Z,22.50
2019-04-26T05:39:36.815Z,22.50
2019-04-26T05:40:36.842Z,22.50
2019-04-26T05:41:36.865Z,22.50
2019-04-26T05:42:36.874Z,22.50
2019-04-26T05:43:36.894Z,22.50
2019-04-26T05:44:36.914Z,22.50
2019-04-26T05:45:36.935Z,22.50
2019-04-26T05:46:36.949Z,22.50
2019-04-26T05:47:36.966Z,22.50
2019-04-26T05:48:36.986Z,22.50
2019-04-26T05:49:37.010Z,28.13
2019-04-26T05:50:37.021Z,28.13
2019-04-26T05:51:37.055Z,28.13
2019-04-26T05:52:37.063Z,28.13
2019-04-26T05:53:37.083Z,22.50
2019-04-26T05:54:37.095Z,22.50
2019-04-26T05:55:37.112Z,22.50
2019-04-26T05:56:37.135Z,22.50
2019-04-26T05:57:37.152Z,22.50
2019-04-26T05:58:37.172Z,22.50
2019-04-26T05:59:37.188Z,22.50
2019-04-26T06:00:37.209Z,22.50
2019-04-26T06:01:37.230Z,22.50
2019-04-26T06:02:37.242Z,22.50
2019-04-26T06:03:37.264Z,22.50
2019-04-26T06:04:37.285Z,22.50
2019-04-26T06:05:37.306Z,22.50
2019-04-26T06:06:37.322Z,22.50
2019-04-26T06:07:37.342Z,22.50
2019-04-26T06:08:37.361Z,22.50
2019-04-26T06:09:37.381Z,22.50
2019-04-26T06:10:37.391Z,22.50
2019-04-26T06:11:37.416Z,22.50
2019-04-26T06:12:37.435Z,22.50
2019-04-26T06:13:37.448Z,22.50
2019-04-26T06:14:37.466Z,22.50
2019-04-26T06:15:37.491Z,22.50
2019-04-26T06:16:37.512Z,22.50
2019-04-26T06:17:37.529Z,22.50
2019-04-26T06:18:37.547Z,22.50
2019-04-26T06:19:37.562Z,28.13
2019-04-26T06:20:37.584Z,33.75
2019-04-26T06:21:37.602Z,33.75
2019-04-26T06:22:37.627Z,33.75
2019-04-26T06:23:37.634Z,33.75
2019-04-26T06:24:37.655Z,33.75
2019-04-26T06:25:37.682Z,33.75
2019-04-26T06:26:37.701Z,33.75
2019-04-26T06:27:37.714Z,33.75
2019-04-26T06:28:37.730Z,28.13
2019-04-26T06:29:37.755Z,28.13
2019-04-26T06:30:45.282Z,28.13
2019-04-26T06:31:37.788Z,22.50
2019-04-26T06:32:37.831Z,22.50
2019-04-26T06:33:37.829Z,22.50
2019-04-26T06:34:37.846Z,22.50
2019-04-26T06:35:37.860Z,22.50
2019-04-26T06:36:37.880Z,22.50
2019-04-26T06:37:37.895Z,28.13
2019-04-26T06:38:43.807Z,28.13
2019-04-26T06:39:37.939Z,28.13
2019-04-26T06:40:42.072Z,28.13
2019-04-26T06:41:37.979Z,28.13
2019-04-26T06:42:37.989Z,22.50
2019-04-26T06:43:38.012Z,22.50
2019-04-26T06:44:38.026Z,22.50
2019-04-26T06:45:38.049Z,22.50
2019-04-26T06:46:38.063Z,16.88
2019-04-26T06:47:38.082Z,16.88
2019-04-26T06:48:38.104Z,16.88
2019-04-26T06:49:38.120Z,16.88
2019-04-26T06:50:38.140Z,16.88
2019-04-26T06:51:38.160Z,16.88
2019-04-26T06:52:38.172Z,16.88
2019-04-26T06:53:38.201Z,22.50
2019-04-26T06:54:38.210Z,22.50
2019-04-26T06:55:38.235Z,22.50
2019-04-26T06:56:38.254Z,22.50
2019-04-26T06:57:38.267Z,28.13
2019-04-26T06:58:38.293Z,28.13
2019-04-26T06:59:38.299Z,28.13
2019-04-26T07:00:38.320Z,33.75
2019-04-26T07:01:38.342Z,33.75
2019-04-26T07:02:38.362Z,39.38
2019-04-26T07:03:38.377Z,45.00
2019-04-26T07:04:38.397Z,45.00
2019-04-26T07:05:38.427Z,50.63
2019-04-26T07:06:38.436Z,50.63
2019-04-26T07:07:38.446Z,50.63
2019-04-26T07:08:38.470Z,50.63
2019-04-26T07:09:38.485Z,56.25
2019-04-26T07:10:38.506Z,56.25
2019-04-26T07:11:38.525Z,61.88
2019-04-26T07:12:38.539Z,67.50
2019-04-26T07:13:38.564Z,67.50
2019-04-26T07:14:38.579Z,67.50
2019-04-26T07:15:38.597Z,61.88
2019-04-26T07:16:38.618Z,61.88
2019-04-26T07:17:38.633Z,61.88
2019-04-26T07:18:38.651Z,56.25
2019-04-26T07:19:38.667Z,56.25
2019-04-26T07:20:38.691Z,50.63
2019-04-26T07:21:38.704Z,45.00
2019-04-26T07:22:38.725Z,45.00
2019-04-26T07:23:38.748Z,45.00
2019-04-26T07:24:38.760Z,45.00
2019-04-26T07:25:38.786Z,50.63
2019-04-26T07:26:38.805Z,50.63
2019-04-26T07:27:38.821Z,50.63
2019-04-26T07:28:38.836Z,50.63
2019-04-26T07:29:38.857Z,50.63
2019-04-26T07:30:38.873Z,50.63
2019-04-26T07:31:38.914Z,56.25
2019-04-26T07:32:38.912Z,56.25
2019-04-26T07:33:38.927Z,56.25
2019-04-26T07:34:38.947Z,50.63
2019-04-26T07:35:38.971Z,50.63
2019-04-26T07:36:38.986Z,50.63
2019-04-26T07:37:39.005Z,56.25
2019-04-26T07:38:39.020Z,56.25
2019-04-26T07:39:39.039Z,50.63
2019-04-26T07:40:39.057Z,50.63
2019-04-26T07:41:39.083Z,50.63
2019-04-26T07:42:39.100Z,50.63
2019-04-26T07:43:39.118Z,50.63
2019-04-26T07:44:39.131Z,50.63
2019-04-26T07:45:39.154Z,56.25
2019-04-26T07:46:39.169Z,50.63
2019-04-26T07:47:39.546Z,56.25
2019-04-26T07:48:39.204Z,61.88
2019-04-26T07:49:39.228Z,67.50
2019-04-26T07:50:39.243Z,73.13
2019-04-26T07:51:39.263Z,73.13
2019-04-26T07:52:39.282Z,73.13
2019-04-26T07:53:39.505Z,78.75
2019-04-26T07:54:39.319Z,78.75
2019-04-26T07:55:39.337Z,78.75
2019-04-26T07:56:39.354Z,78.75
2019-04-26T07:57:39.377Z,90.00
2019-04-26T07:58:39.420Z,84.38
2019-04-26T07:59:39.409Z,84.38
2019-04-26T08:00:44.931Z,84.38
2019-04-26T08:01:39.449Z,84.38
2019-04-26T08:02:39.670Z,73.13
2019-04-26T08:03:39.481Z,73.13
2019-04-26T08:04:39.505Z,84.38
2019-04-26T08:05:39.526Z,84.38
2019-04-26T08:06:39.794Z,84.38
2019-04-26T08:07:39.562Z,73.13
2019-04-26T08:08:39.581Z,73.13
2019-04-26T08:09:39.600Z,78.75
2019-04-26T08:10:39.619Z,73.13
2019-04-26T08:11:39.636Z,67.50
2019-04-26T08:12:39.653Z,73.13
2019-04-26T08:13:39.718Z,84.38
2019-04-26T08:14:39.691Z,95.63
2019-04-26T08:15:39.711Z,101.25
2019-04-26T08:16:39.733Z,106.88
2019-04-26T08:17:39.748Z,112.50
2019-04-26T08:18:39.775Z,112.50
2019-04-26T08:19:39.786Z,90.00
2019-04-26T08:20:39.805Z,67.50
2019-04-26T08:21:42.477Z,67.50
2019-04-26T08:22:39.839Z,78.75
2019-04-26T08:23:42.092Z,78.75
2019-04-26T08:24:39.978Z,61.88
2019-04-26T08:25:39.899Z,61.88
2019-04-26T08:26:39.921Z,56.25
2019-04-26T08:27:39.941Z,50.63
2019-04-26T08:28:39.962Z,56.25
2019-04-26T08:29:39.982Z,56.25
2019-04-26T08:30:40.680Z,61.88
2019-04-26T08:31:40.016Z,67.50
2019-04-26T08:32:40.032Z,78.75
2019-04-26T08:33:41.035Z,90.00
2019-04-26T08:34:40.071Z,95.63
2019-04-26T08:35:40.087Z,101.25
2019-04-26T08:36:40.106Z,84.38
2019-04-26T08:37:40.130Z,73.13
2019-04-26T08:38:40.142Z,78.75
2019-04-26T08:39:45.667Z,78.75
2019-04-26T08:40:40.187Z,73.13
2019-04-26T08:41:40.306Z,61.88
2019-04-26T08:42:40.268Z,61.88
2019-04-26T08:43:40.273Z,56.25
2019-04-26T08:44:40.360Z,50.63
2019-04-26T08:45:40.544Z,56.25
2019-04-26T08:46:40.363Z,61.88
2019-04-26T08:47:40.320Z,67.50
2019-04-26T08:48:40.333Z,73.13
2019-04-26T08:49:40.352Z,73.13
2019-04-26T08:50:42.283Z,67.50
2019-04-26T08:51:40.390Z,61.88
2019-04-26T08:52:40.417Z,61.88
2019-04-26T08:53:40.435Z,61.88
2019-04-26T08:54:40.447Z,73.13
2019-04-26T08:55:40.469Z,84.38
2019-04-26T08:56:40.486Z,90.00
2019-04-26T08:57:40.508Z,95.63
2019-04-26T08:58:40.524Z,95.63
2019-04-26T08:59:40.546Z,95.63
2019-04-26T09:00:40.566Z,90.00
2019-04-26T09:01:41.987Z,84.38
2019-04-26T09:02:40.605Z,84.38
2019-04-26T09:03:40.618Z,84.38
2019-04-26T09:04:40.640Z,84.38
2019-04-26T09:05:40.667Z,84.38
2019-04-26T09:06:40.677Z,90.00
2019-04-26T09:07:40.697Z,95.63
2019-04-26T09:08:43.566Z,101.25
2019-04-26T09:09:40.751Z,101.25
2019-04-26T09:10:43.228Z,112.50
2019-04-26T09:11:40.931Z,129.38
2019-04-26T09:12:40.791Z,146.25
2019-04-26T09:13:40.809Z,151.88
2019-04-26T09:14:40.836Z,163.13
2019-04-26T09:15:40.850Z,168.75
2019-04-26T09:16:50.256Z,168.75
2019-04-26T09:17:40.886Z,168.75
2019-04-26T09:18:48.461Z,168.75
2019-04-26T09:19:40.928Z,174.38
2019-04-26T09:20:42.819Z,174.38
2019-04-26T09:21:40.967Z,180.00
2019-04-26T09:22:41.235Z,180.00
2019-04-26T09:23:44.302Z,180.00
2019-04-26T09:24:41.028Z,174.38
2019-04-26T09:25:41.045Z,168.75
2019-04-26T09:26:42.572Z,168.75
2019-04-26T09:27:41.096Z,163.13
2019-04-26T09:28:41.100Z,151.88
2019-04-26T09:29:41.117Z,140.63
2019-04-26T09:30:42.278Z,135.00
2019-04-26T09:31:41.162Z,129.38
2019-04-26T09:32:41.188Z,123.75
2019-04-26T09:33:41.201Z,106.88
2019-04-26T09:34:42.668Z,95.63
2019-04-26T09:35:41.238Z,95.63
2019-04-26T09:36:41.260Z,123.75
2019-04-26T09:37:41.273Z,140.63
2019-04-26T09:38:41.292Z,146.25
2019-04-26T09:39:41.990Z,129.38
2019-04-26T09:40:41.336Z,118.13
2019-04-26T09:41:41.354Z,129.38
2019-04-26T09:42:41.369Z,123.75
2019-04-26T09:43:41.388Z,118.13
2019-04-26T09:44:42.942Z,118.13
2019-04-26T09:45:41.435Z,123.75
2019-04-26T09:46:44.260Z,135.00
2019-04-26T09:47:41.473Z,135.00
2019-04-26T09:48:41.494Z,123.75
2019-04-26T09:49:42.318Z,106.88
2019-04-26T09:50:41.528Z,106.88
2019-04-26T09:51:41.545Z,118.13
2019-04-26T09:52:41.572Z,140.63
2019-04-26T09:53:43.474Z,140.63
2019-04-26T09:54:41.613Z,140.63
2019-04-26T09:55:41.628Z,146.25
2019-04-26T09:56:41.650Z,157.50
2019-04-26T09:57:41.670Z,157.50
2019-04-26T09:58:41.686Z,151.88
2019-04-26T09:59:41.706Z,157.50
2019-04-26T10:00:44.077Z,168.75
2019-04-26T10:01:41.749Z,163.13
2019-04-26T10:02:41.865Z,163.13
2019-04-26T10:03:41.792Z,168.75
2019-04-26T10:04:41.806Z,174.38
2019-04-26T10:05:41.827Z,180.00
2019-04-26T10:06:41.850Z,185.63
2019-04-26T10:07:41.868Z,185.63
2019-04-26T10:08:43.296Z,180.00
2019-04-26T10:09:41.908Z,174.38
2019-04-26T10:10:41.931Z,168.75
2019-04-26T10:11:43.543Z,163.13
2019-04-26T10:12:41.970Z,163.13
2019-04-26T10:13:41.989Z,163.13
2019-04-26T10:14:42.008Z,151.88
2019-04-26T10:15:42.030Z,151.88
2019-04-26T10:16:42.409Z,163.13
2019-04-26T10:17:42.061Z,174.38
2019-04-26T10:18:42.080Z,180.00
2019-04-26T10:19:42.108Z,185.63
2019-04-26T10:20:42.126Z,191.25
2019-04-26T10:21:42.148Z,196.88
2019-04-26T10:22:42.161Z,213.75
2019-04-26T10:23:42.183Z,230.63
2019-04-26T10:24:42.217Z,230.63
2019-04-26T10:25:42.239Z,225.00
2019-04-26T10:26:42.243Z,208.13
2019-04-26T10:27:42.585Z,196.88
2019-04-26T10:28:42.284Z,180.00
2019-04-26T10:29:42.313Z,174.38
2019-04-26T10:30:43.897Z,174.38
2019-04-26T10:31:42.351Z,168.75
2019-04-26T10:32:42.364Z,157.50
2019-04-26T10:33:42.387Z,168.75
2019-04-26T10:34:42.795Z,180.00
2019-04-26T10:35:42.432Z,174.38
2019-04-26T10:36:42.451Z,157.50
2019-04-26T10:37:43.968Z,157.50
2019-04-26T10:38:42.486Z,157.50
2019-04-26T10:39:42.519Z,163.13
2019-04-26T10:40:42.527Z,163.13
2019-04-26T10:41:42.548Z,180.00
2019-04-26T10:42:42.569Z,185.63
2019-04-26T10:43:43.772Z,185.63
2019-04-26T10:44:42.616Z,185.63
2019-04-26T10:45:45.444Z,180.00
2019-04-26T10:46:54.875Z,180.00
2019-04-26T10:47:42.671Z,180.00
2019-04-26T10:48:45.391Z,180.00
2019-04-26T10:49:42.720Z,168.75
2019-04-26T10:50:42.733Z,174.38
2019-04-26T10:51:42.951Z,185.63
2019-04-26T10:52:45.485Z,196.88
2019-04-26T10:53:42.798Z,185.63
2019-04-26T10:54:44.601Z,174.38
2019-04-26T10:55:46.346Z,168.75
2019-04-26T10:56:42.864Z,157.50
2019-04-26T10:57:42.882Z,146.25
2019-04-26T10:58:42.901Z,135.00
2019-04-26T10:59:44.195Z,129.38
2019-04-26T11:00:42.938Z,135.00
2019-04-26T11:01:42.965Z,140.63
2019-04-26T11:02:42.977Z,140.63
2019-04-26T11:03:43.006Z,135.00
2019-04-26T11:04:43.023Z,129.38
2019-04-26T11:05:43.040Z,146.25
2019-04-26T11:06:43.067Z,135.00
2019-04-26T11:07:43.086Z,118.13
2019-04-26T11:08:43.183Z,106.88
2019-04-26T11:09:43.124Z,101.25
2019-04-26T11:10:48.817Z,112.50
2019-04-26T11:11:43.170Z,118.13
2019-04-26T11:12:44.566Z,118.13
2019-04-26T11:13:43.205Z,112.50
2019-04-26T11:14:43.277Z,123.75
2019-04-26T11:15:43.244Z,140.63
2019-04-26T11:16:43.267Z,140.63
2019-04-26T11:17:46.040Z,140.63
2019-04-26T11:18:43.303Z,129.38
2019-04-26T11:19:44.311Z,140.63
2019-04-26T11:20:45.667Z,146.25
2019-04-26T11:21:43.365Z,135.00
2019-04-26T11:22:43.385Z,129.38
2019-04-26T11:23:45.557Z,135.00
2019-04-26T11:24:43.434Z,146.25
2019-04-26T11:25:43.452Z,140.63
2019-04-26T11:26:43.471Z,146.25
2019-04-26T11:27:44.350Z,146.25
2019-04-26T11:28:43.515Z,135.00
2019-04-26T11:29:53.315Z,123.75
2019-04-26T11:30:43.561Z,123.75
2019-04-26T11:31:43.574Z,118.13
2019-04-26T11:32:45.722Z,106.88
2019-04-26T11:33:45.143Z,95.63
2019-04-26T11:34:43.735Z,90.00
2019-04-26T11:35:43.668Z,90.00
2019-04-26T11:36:43.836Z,95.63
2019-04-26T11:37:46.276Z,112.50
2019-04-26T11:38:43.719Z,123.75
2019-04-26T11:39:43.732Z,135.00
2019-04-26T11:40:44.465Z,146.25
2019-04-26T11:41:43.779Z,140.63
2019-04-26T11:42:45.688Z,140.63
2019-04-26T11:43:43.819Z,140.63
2019-04-26T11:44:44.748Z,146.25
2019-04-26T11:45:45.368Z,146.25
2019-04-26T11:46:44.819Z,151.88
2019-04-26T11:47:55.421Z,163.13
2019-04-26T11:48:43.917Z,168.75
2019-04-26T11:49:43.941Z,180.00
2019-04-26T11:50:43.954Z,191.25
2019-04-26T11:51:43.978Z,213.75
2019-04-26T11:52:44.001Z,230.63
2019-04-26T11:53:44.834Z,236.25
2019-04-26T11:54:44.042Z,236.25
2019-04-26T11:55:44.062Z,236.25
2019-04-26T11:56:44.082Z,230.63
2019-04-26T11:57:47.527Z,230.63
2019-04-26T11:58:44.120Z,230.63
2019-04-26T11:59:44.699Z,230.63
2019-04-26T12:00:44.160Z,236.25
2019-04-26T12:01:44.183Z,247.50
2019-04-26T12:02:46.417Z,253.13
2019-04-26T12:03:44.225Z,264.38
2019-04-26T12:04:44.248Z,264.38
2019-04-26T12:05:44.268Z,258.75
2019-04-26T12:06:44.296Z,247.50
2019-04-26T12:07:44.301Z,241.88
2019-04-26T12:08:44.323Z,241.88
2019-04-26T12:09:44.344Z,230.63
2019-04-26T12:10:45.881Z,225.00
2019-04-26T12:11:49.593Z,219.38
2019-04-26T12:12:47.070Z,208.13
2019-04-26T12:13:44.432Z,208.13
2019-04-26T12:14:44.447Z,219.38
2019-04-26T12:15:45.382Z,213.75
2019-04-26T12:16:49.359Z,208.13
2019-04-26T12:17:57.893Z,202.50
2019-04-26T12:18:45.677Z,208.13
2019-04-26T12:19:44.554Z,208.13
2019-04-26T12:20:44.578Z,202.50
2019-04-26T12:21:44.603Z,196.88
2019-04-26T12:22:44.622Z,180.00
2019-04-26T12:23:44.643Z,163.13
2019-04-26T12:24:44.661Z,157.50
2019-04-26T12:25:48.068Z,157.50
2019-04-26T12:26:46.219Z,157.50
2019-04-26T12:27:44.993Z,168.75
2019-04-26T12:28:44.748Z,180.00
2019-04-26T12:29:48.297Z,168.75
2019-04-26T12:30:44.782Z,174.38
2019-04-26T12:31:44.809Z,185.63
2019-04-26T12:32:44.831Z,196.88
2019-04-26T12:33:45.258Z,196.88
2019-04-26T12:34:44.870Z,196.88
2019-04-26T12:35:44.892Z,196.88
2019-04-26T12:36:44.911Z,191.25
2019-04-26T12:37:44.935Z,185.63
2019-04-26T12:38:44.952Z,180.00
2019-04-26T12:39:44.978Z,174.38
2019-04-26T12:40:46.096Z,168.75
2019-04-26T12:41:45.263Z,168.75
2019-04-26T12:42:47.379Z,174.38
2019-04-26T12:43:45.059Z,168.75
2019-04-26T12:44:45.080Z,168.75
2019-04-26T12:45:47.425Z,157.50
2019-04-26T12:46:45.125Z,163.13
2019-04-26T12:47:45.141Z,146.25
2019-04-26T12:48:46.054Z,140.63
2019-04-26T12:49:45.186Z,135.00
2019-04-26T12:50:45.207Z,140.63
2019-04-26T12:51:47.336Z,151.88
2019-04-26T12:52:45.249Z,163.13
2019-04-26T12:53:45.267Z,168.75
2019-04-26T12:54:45.288Z,163.13
2019-04-26T12:55:45.305Z,151.88